Time;durP1;ratioP1;P1;durP2;ratioP2;P2;SDS_P1;SDS_P2;PMS_P1;PMS_P2;Temp;Humidity;BMP_temperature;BMP_pressure;BME280_temperature;BME280_humidity;BME280_pressure;Samples;Min_cycle;Max_cycle;Signal;HPM_P1;HPM_P2
2024/01/18 00:02:10;;;;;;;33.85;16.55;;;;;;;-6.76;100.00;99783.91;5021299;28;20128;-75
2024/01/18 00:04:35;;;;;;;27.02;12.30;;;;;;;-6.77;100.00;99787.44;5021627;28;20043;-75
2024/01/18 00:07:01;;;;;;;16.25;10.75;;;;;;;-6.84;100.00;99791.34;5021662;28;20187;-75
2024/01/18 00:09:27;;;;;;;22.77;11.30;;;;;;;-6.84;100.00;99783.50;5021368;28;20162;-75
2024/01/18 00:11:53;;;;;;;24.50;13.45;;;;;;;-6.96;100.00;99790.28;5021328;28;20033;-75
2024/01/18 00:14:19;;;;;;;19.60;10.27;;;;;;;-6.98;100.00;99791.31;5021519;28;20033;-75
2024/01/18 00:16:45;;;;;;;23.90;12.93;;;;;;;-6.82;100.00;99797.34;5038115;28;20044;-75
2024/01/18 00:19:11;;;;;;;21.95;11.65;;;;;;;-6.83;100.00;99803.47;5037272;28;20100;-75
2024/01/18 00:21:37;;;;;;;25.80;12.90;;;;;;;-6.70;100.00;99807.06;5021095;28;20399;-75
2024/01/18 00:24:03;;;;;;;17.73;9.88;;;;;;;-6.56;100.00;99808.00;5021281;28;20025;-75
2024/01/18 00:26:28;;;;;;;22.13;14.20;;;;;;;-6.66;100.00;99815.56;5020921;28;20121;-75
2024/01/18 00:28:54;;;;;;;28.30;13.10;;;;;;;-6.79;100.00;99812.84;5020826;28;20029;-75
2024/01/18 00:31:20;;;;;;;22.40;13.35;;;;;;;-6.79;100.00;99820.66;5020701;28;20037;-74
2024/01/18 00:33:45;;;;;;;24.85;11.55;;;;;;;-6.68;100.00;99820.88;5021120;28;20033;-74
2024/01/18 00:36:11;;;;;;;19.77;12.10;;;;;;;-6.53;100.00;99828.78;5036781;28;20119;-75
2024/01/18 00:38:37;;;;;;;24.52;11.50;;;;;;;-6.59;100.00;99831.72;5021126;28;20136;-75
2024/01/18 00:41:03;;;;;;;19.40;9.70;;;;;;;-6.77;100.00;99837.13;5019946;28;20028;-75
2024/01/18 00:43:28;;;;;;;16.50;8.77;;;;;;;-6.93;100.00;99839.78;5037170;28;20493;-74
2024/01/18 00:45:54;;;;;;;16.30;9.35;;;;;;;-6.92;100.00;99844.06;5037192;28;20049;-74
2024/01/18 00:48:20;;;;;;;19.33;8.25;;;;;;;-6.88;100.00;99847.31;5020908;28;20028;-74
2024/01/18 00:50:45;;;;;;;17.85;9.93;;;;;;;-6.80;100.00;99862.56;5020641;28;20039;-74
2024/01/18 00:53:11;;;;;;;30.38;15.00;;;;;;;-6.87;100.00;99875.16;5020622;28;20064;-74
2024/01/18 00:55:37;;;;;;;12.68;9.55;;;;;;;-6.89;100.00;99858.72;5020739;28;20029;-77
2024/01/18 00:58:03;;;;;;;31.67;14.20;;;;;;;-7.05;100.00;99869.19;5020764;28;20048;-74
2024/01/18 01:00:28;;;;;;;12.45;4.53;;;;;;;-6.97;100.00;99879.22;5020942;28;20028;-74
2024/01/18 01:02:54;;;;;;;6.07;4.30;;;;;;;-6.53;100.00;99878.47;5036867;28;20100;-74
2024/01/18 01:05:20;;;;;;;20.02;10.95;;;;;;;-6.03;100.00;99875.47;5036416;28;20111;-74
2024/01/18 01:07:45;;;;;;;34.85;15.57;;;;;;;-5.70;100.00;99884.78;5020336;28;20025;-74
2024/01/18 01:10:11;;;;;;;12.48;6.65;;;;;;;-5.53;100.00;99862.78;5020559;28;20036;-74
2024/01/18 01:12:37;;;;;;;20.35;9.35;;;;;;;-5.49;100.00;99873.94;5020319;28;20514;-75
2024/01/18 01:15:03;;;;;;;9.02;4.35;;;;;;;-5.32;100.00;99882.44;5020169;28;20037;-74
2024/01/18 01:17:28;;;;;;;20.90;9.32;;;;;;;-5.21;100.00;99883.50;5020373;28;20072;-74
2024/01/18 01:19:54;;;;;;;24.85;10.07;;;;;;;-5.29;100.00;99894.50;5036648;28;20033;-74
2024/01/18 01:22:21;;;;;;;20.85;9.18;;;;;;;-5.38;100.00;99898.50;5020586;28;20029;-74
2024/01/18 01:24:47;;;;;;;5.78;4.00;;;;;;;-5.23;100.00;99906.38;5036789;28;20041;-75
2024/01/18 01:27:13;;;;;;;4.28;3.88;;;;;;;-4.85;100.00;99906.53;5036478;28;20387;-74
2024/01/18 01:29:38;;;;;;;19.15;9.65;;;;;;;-4.65;100.00;99911.34;5019981;28;20036;-74
2024/01/18 01:32:05;;;;;;;22.27;10.68;;;;;;;-4.62;100.00;99914.72;5019524;28;20025;-74
2024/01/18 01:34:31;;;;;;;27.85;10.57;;;;;;;-4.70;100.00;99923.09;5036626;28;20045;-74
2024/01/18 01:36:57;;;;;;;23.23;10.57;;;;;;;-4.75;100.00;99927.78;5019721;28;20050;-75
2024/01/18 01:39:22;;;;;;;17.88;8.85;;;;;;;-4.93;100.00;99930.63;5052579;28;20037;-74
2024/01/18 01:42:11;;;;;;;13.55;6.80;;;;;;;-5.07;100.00;99932.47;5019841;28;20039;-74
2024/01/18 01:45:50;;;;;;;14.73;7.20;;;;;;;-5.31;100.00;99915.56;5041128;28;20059;-75
2024/01/18 01:48:41;;;;;;;10.23;5.95;;;;;;;-5.50;100.00;99927.25;5031588;28;20124;-76
2024/01/18 01:51:39;;;;;;;15.95;8.07;;;;;;;-5.69;100.00;99924.91;5025352;28;20537;-76
2024/01/18 01:54:52;;;;;;;12.50;7.28;;;;;;;-6.01;100.00;99938.19;5016683;28;20395;-74
2024/01/18 01:57:18;;;;;;;12.98;6.80;;;;;;;-6.09;100.00;99954.34;5036014;28;20518;-74
2024/01/18 01:59:44;;;;;;;14.35;7.75;;;;;;;-6.08;100.00;99960.44;5036111;28;20045;-74
2024/01/18 02:02:11;;;;;;;12.23;7.15;;;;;;;-6.22;100.00;99959.47;5019545;28;20099;-74
2024/01/18 02:04:37;;;;;;;13.38;7.75;;;;;;;-6.48;100.00;99975.81;5019749;28;20039;-74
2024/01/18 02:07:03;;;;;;;12.02;6.55;;;;;;;-6.70;100.00;99970.91;5003033;28;20037;-74
2024/01/18 02:09:39;;;;;;;14.15;6.38;;;;;;;-6.89;100.00;99974.56;5035770;28;20365;-74
2024/01/18 02:12:33;;;;;;;14.18;5.63;;;;;;;-6.78;100.00;99966.13;5038348;28;20491;-75
2024/01/18 02:15:03;;;;;;;17.05;8.48;;;;;;;-6.69;100.00;99970.84;5051729;28;20380;-75
2024/01/18 02:18:00;;;;;;;88.32;34.10;;;;;;;-6.73;100.00;99985.00;5035812;28;20079;-74
2024/01/18 02:21:14;;;;;;;20.50;10.68;;;;;;;-6.70;100.00;99981.38;5034582;28;20438;-74
2024/01/18 02:24:37;;;;;;;19.35;9.38;;;;;;;-6.74;100.00;99999.00;5027424;28;20033;-74
2024/01/18 02:27:03;;;;;;;20.30;9.20;;;;;;;-6.98;100.00;99995.97;5051738;28;20433;-74
2024/01/18 02:29:29;;;;;;;25.45;13.15;;;;;;;-6.96;100.00;100007.19;5035740;28;20040;-74
2024/01/18 02:31:56;;;;;;;15.82;9.98;;;;;;;-6.99;100.00;100007.34;5019101;28;20028;-74
2024/01/18 02:34:22;;;;;;;20.15;10.00;;;;;;;-7.07;100.00;100007.75;5035730;28;20033;-74
2024/01/18 02:36:47;;;;;;;25.92;13.82;;;;;;;-7.20;100.00;100017.16;5019197;28;20537;-74
2024/01/18 02:39:13;;;;;;;16.45;10.57;;;;;;;-7.23;100.00;100016.50;5035885;28;20037;-74
2024/01/18 02:41:41;;;;;;;28.55;12.65;;;;;;;-7.29;100.00;100017.66;5019070;28;20351;-74
2024/01/18 02:44:07;;;;;;;25.73;13.73;;;;;;;-7.32;100.00;100028.28;5019615;28;20506;-74
2024/01/18 02:46:33;;;;;;;25.90;13.88;;;;;;;-7.46;100.00;100035.97;5018877;28;20033;-74
2024/01/18 02:49:00;;;;;;;23.85;11.50;;;;;;;-7.54;100.00;100045.06;5018835;28;20467;-74
2024/01/18 02:51:26;;;;;;;21.02;11.43;;;;;;;-7.66;100.00;100050.91;5035083;28;20490;-75
2024/01/18 02:53:51;;;;;;;15.75;10.15;;;;;;;-7.74;100.00;100061.72;5019090;28;20036;-74
2024/01/18 02:56:17;;;;;;;14.68;9.15;;;;;;;-7.83;100.00;100056.09;5019101;28;20029;-75
2024/01/18 02:58:43;;;;;;;16.58;9.40;;;;;;;-7.93;100.00;100060.13;5019119;28;20114;-74
2024/01/18 03:01:11;;;;;;;17.50;8.65;;;;;;;-8.04;100.00;100052.81;5019104;28;20036;-74
2024/01/18 03:03:37;;;;;;;22.08;11.65;;;;;;;-7.99;100.00;100075.16;5052801;28;20032;-74
2024/01/18 03:06:03;;;;;;;13.80;6.85;;;;;;;-7.90;100.00;100067.78;5022812;28;20036;-74
2024/01/18 03:08:28;;;;;;;11.20;7.20;;;;;;;-7.93;100.00;100063.56;5039077;28;20020;-74
2024/01/18 03:10:54;;;;;;;14.43;8.07;;;;;;;-8.06;100.00;100065.94;5022531;28;20387;-74
2024/01/18 03:13:20;;;;;;;10.50;7.20;;;;;;;-8.06;100.00;100063.31;5055166;28;20056;-74
2024/01/18 03:15:45;;;;;;;10.70;6.55;;;;;;;-8.12;100.00;100058.41;5039083;28;20108;-74
2024/01/18 03:18:11;;;;;;;16.77;8.43;;;;;;;-8.20;100.00;100069.22;5039099;28;20033;-74
2024/01/18 03:20:37;;;;;;;9.35;5.63;;;;;;;-8.15;100.00;100073.34;5022575;28;20044;-74
2024/01/18 03:23:03;;;;;;;7.72;5.10;;;;;;;-7.89;100.00;100074.69;5038472;28;20033;-77
2024/01/18 03:25:29;;;;;;;18.80;6.80;;;;;;;-7.76;100.00;100081.81;5022217;28;20037;-74
2024/01/18 03:27:55;;;;;;;9.07;5.53;;;;;;;-7.75;100.00;100078.31;5038867;28;20372;-74
2024/01/18 03:30:23;;;;;;;9.73;5.70;;;;;;;-7.68;100.00;100078.00;5038766;28;20071;-74
2024/01/18 03:32:48;;;;;;;10.10;5.45;;;;;;;-7.69;100.00;100085.00;5038708;28;20025;-74
2024/01/18 03:35:14;;;;;;;6.80;3.10;;;;;;;-7.73;100.00;100078.22;5038245;28;20104;-74
2024/01/18 03:37:40;;;;;;;6.45;4.68;;;;;;;-7.62;100.00;100078.53;5038995;28;20127;-74
2024/01/18 03:40:08;;;;;;;8.43;4.82;;;;;;;-7.53;100.00;100098.94;5022196;28;20472;-74
2024/01/18 03:42:38;;;;;;;14.68;6.72;;;;;;;-7.57;100.00;100100.06;5054855;28;20047;-74
2024/01/18 03:45:04;;;;;;;10.23;6.63;;;;;;;-7.68;100.00;100104.94;5038198;28;20083;-74
2024/01/18 03:47:30;;;;;;;12.55;6.30;;;;;;;-7.70;100.00;100109.38;5038393;28;20041;-74
2024/01/18 03:49:56;;;;;;;14.30;8.25;;;;;;;-7.65;100.00;100119.59;5038576;28;20036;-74
2024/01/18 03:52:23;;;;;;;24.40;10.40;;;;;;;-7.73;100.00;100109.53;5037782;28;20021;-74
2024/01/18 03:54:48;;;;;;;15.75;8.00;;;;;;;-7.67;100.00;100127.53;5022232;28;20123;-74
2024/01/18 03:57:15;;;;;;;19.23;8.80;;;;;;;-7.59;100.00;100125.38;5021816;28;20519;-74
2024/01/18 03:59:40;;;;;;;19.40;8.52;;;;;;;-7.47;100.00;100123.91;5005695;28;20029;-74
2024/01/18 04:02:06;;;;;;;20.75;9.75;;;;;;;-7.33;100.00;100126.69;5021759;28;20021;-75
2024/01/18 04:04:32;;;;;;;21.77;7.93;;;;;;;-7.29;100.00;100124.75;5038261;28;20036;-74
2024/01/18 04:06:58;;;;;;;18.48;7.95;;;;;;;-7.34;100.00;100138.03;5021733;28;20029;-74
2024/01/18 04:09:23;;;;;;;14.68;8.10;;;;;;;-7.40;100.00;100134.91;5004981;28;20049;-75
2024/01/18 04:11:49;;;;;;;7.13;5.13;;;;;;;-7.40;100.00;100140.13;5021009;28;20498;-74
2024/01/18 04:14:15;;;;;;;13.05;7.57;;;;;;;-7.47;100.00;100154.41;5021546;28;20041;-74
2024/01/18 04:16:41;;;;;;;17.30;9.40;;;;;;;-7.49;100.00;100158.84;5021516;28;20063;-74
2024/01/18 04:19:07;;;;;;;21.90;11.98;;;;;;;-7.52;100.00;100157.25;5037634;28;20025;-74
2024/01/18 04:21:33;;;;;;;17.15;7.90;;;;;;;-7.56;100.00;100161.78;5021337;28;20029;-74
2024/01/18 04:23:59;;;;;;;18.63;8.32;;;;;;;-7.71;100.00;100164.28;5037869;28;20528;-74
2024/01/18 04:26:27;;;;;;;14.40;7.40;;;;;;;-7.77;100.00;100165.44;5021434;28;20037;-74
2024/01/18 04:28:53;;;;;;;21.50;7.40;;;;;;;-7.61;100.00;100163.75;5021797;28;20141;-76
2024/01/18 04:31:19;;;;;;;14.63;6.05;;;;;;;-7.12;100.00;100165.69;5037269;28;20504;-74
2024/01/18 04:33:45;;;;;;;14.07;6.28;;;;;;;-6.72;100.00;100167.09;5038081;28;20040;-76
2024/01/18 04:36:11;;;;;;;28.83;12.23;;;;;;;-6.61;100.00;100176.13;5053417;28;20406;-75
2024/01/18 04:38:37;;;;;;;26.85;10.43;;;;;;;-6.68;100.00;100176.47;5020918;28;20089;-74
2024/01/18 04:41:03;;;;;;;12.65;7.20;;;;;;;-6.80;100.00;100184.97;5037083;28;20068;-74
2024/01/18 04:43:29;;;;;;;15.82;8.65;;;;;;;-6.89;100.00;100188.88;5037429;28;20537;-74
2024/01/18 04:46:22;;;;;;;10.82;6.13;;;;;;;-7.03;100.00;100170.44;5037093;28;20045;-75
2024/01/18 04:49:20;;;;;;;5.70;4.80;;;;;;;-7.10;100.00;100184.75;5017378;28;20033;-74
2024/01/18 04:51:46;;;;;;;11.77;5.05;;;;;;;-7.26;100.00;100187.28;5052851;28;20040;-74
2024/01/18 04:54:12;;;;;;;12.70;5.85;;;;;;;-7.33;100.00;100196.34;5020680;28;20413;-74
2024/01/18 04:56:38;;;;;;;15.55;6.03;;;;;;;-7.25;100.00;100199.44;5036660;28;20029;-74
2024/01/18 04:59:04;;;;;;;10.32;5.30;;;;;;;-7.20;100.00;100201.81;5020582;28;20044;-74
2024/01/18 05:01:30;;;;;;;9.02;5.65;;;;;;;-7.18;100.00;100213.03;5037268;28;20029;-74
2024/01/18 05:03:56;;;;;;;7.13;4.25;;;;;;;-7.21;100.00;100207.97;5037193;28;20044;-74
2024/01/18 05:06:22;;;;;;;10.32;3.83;;;;;;;-7.20;100.00;100220.09;5020611;28;20029;-74
2024/01/18 05:08:48;;;;;;;13.32;5.72;;;;;;;-7.05;100.00;100219.31;5020670;28;20134;-74
2024/01/18 05:11:14;;;;;;;14.75;5.68;;;;;;;-7.07;100.00;100219.38;5020248;28;20036;-75
2024/01/18 05:13:39;;;;;;;10.48;5.35;;;;;;;-7.12;100.00;100226.66;5020418;28;20028;-76
2024/01/18 05:16:06;;;;;;;10.52;5.63;;;;;;;-7.15;100.00;100239.00;5020343;28;20033;-74
2024/01/18 05:18:32;;;;;;;10.15;6.40;;;;;;;-7.21;100.00;100247.16;5037014;28;20029;-74
2024/01/18 05:20:58;;;;;;;10.75;5.80;;;;;;;-7.26;100.00;100249.97;5036754;28;20047;-74
2024/01/18 05:23:30;;;;;;;11.45;5.00;;;;;;;-7.38;100.00;100245.34;5036816;28;20086;-74
2024/01/18 05:26:09;;;;;;;7.85;4.55;;;;;;;-7.47;100.00;100243.19;5019372;28;20095;-75
2024/01/18 05:28:35;;;;;;;11.77;5.82;;;;;;;-7.55;100.00;100260.06;5036636;28;20020;-74
2024/01/18 05:31:25;;;;;;;12.02;5.05;;;;;;;-7.67;100.00;100263.28;5020280;28;20079;-75
2024/01/18 05:34:20;;;;;;;15.25;6.28;;;;;;;-7.78;100.00;100255.06;5036185;28;20087;-74
2024/01/18 05:36:51;;;;;;;11.13;4.07;;;;;;;-7.77;100.00;100270.69;5035546;28;20098;-75
2024/01/18 05:39:50;;;;;;;11.77;5.93;;;;;;;-7.94;100.00;100248.88;5035597;28;20045;-74
2024/01/18 05:42:18;;;;;;;12.63;5.45;;;;;;;-7.81;100.00;100265.66;5036503;28;20047;-74
2024/01/18 05:44:47;;;;;;;6.72;4.43;;;;;;;-7.75;100.00;100273.22;5020270;28;20037;-74
2024/01/18 05:47:13;;;;;;;9.80;5.13;;;;;;;-7.64;100.00;100289.22;5019764;28;20041;-74
2024/01/18 05:49:39;;;;;;;10.60;5.28;;;;;;;-7.57;100.00;100288.03;5052764;28;20032;-74
2024/01/18 05:52:06;;;;;;;8.25;4.80;;;;;;;-7.59;100.00;100289.84;5019585;28;20040;-74
2024/01/18 05:54:33;;;;;;;10.50;5.30;;;;;;;-7.59;100.00;100297.69;5036199;28;20029;-74
2024/01/18 05:57:00;;;;;;;10.93;5.25;;;;;;;-7.59;100.00;100305.53;5036024;28;20032;-75
2024/01/18 05:59:26;;;;;;;21.27;8.20;;;;;;;-7.65;100.00;100318.00;5052318;28;20024;-74
2024/01/18 06:01:52;;;;;;;31.75;8.77;;;;;;;-7.67;100.00;100318.09;5019808;28;20036;-74
2024/01/18 06:04:17;;;;;;;19.75;5.72;;;;;;;-7.69;100.00;100321.69;5035877;28;20041;-74
2024/01/18 06:06:43;;;;;;;7.55;4.78;;;;;;;-7.78;100.00;100322.94;5019599;28;20132;-75
2024/01/18 06:09:09;;;;;;;14.68;4.78;;;;;;;-7.63;100.00;100329.22;5036087;28;20459;-74
2024/01/18 06:11:35;;;;;;;10.88;5.47;;;;;;;-7.47;100.00;100326.75;5036235;28;20533;-74
2024/01/18 06:14:01;;;;;;;10.38;5.45;;;;;;;-7.42;100.00;100335.22;5019659;28;20033;-74
2024/01/18 06:16:47;;;;;;;9.13;4.53;;;;;;;-7.43;100.00;100341.38;5019457;28;20040;-74
2024/01/18 06:19:13;;;;;;;9.43;4.55;;;;;;;-7.46;100.00;100339.75;5019152;28;20036;-74
2024/01/18 06:21:39;;;;;;;10.93;4.97;;;;;;;-7.60;100.00;100340.38;5019575;28;20028;-74
2024/01/18 06:24:05;;;;;;;13.68;4.53;;;;;;;-7.77;100.00;100345.53;5002941;28;20063;-74
2024/01/18 06:26:31;;;;;;;12.40;6.53;;;;;;;-7.87;100.00;100354.69;5019566;28;20101;-74
2024/01/18 06:28:56;;;;;;;8.27;4.82;;;;;;;-7.93;100.00;100347.13;5035904;28;20459;-74
2024/01/18 06:31:26;;;;;;;6.00;4.57;;;;;;;-8.10;100.00;100353.94;5035666;28;20025;-74
2024/01/18 06:33:53;;;;;;;8.77;5.03;;;;;;;-8.18;100.00;100350.81;5051835;28;20033;-74
2024/01/18 06:36:19;;;;;;;11.35;4.90;;;;;;;-8.23;100.00;100355.38;5052250;28;20028;-74
2024/01/18 06:38:45;;;;;;;7.97;3.67;;;;;;;-8.23;100.00;100368.41;5053166;28;20037;-74
2024/01/18 06:41:11;;;;;;;9.98;6.40;;;;;;;-8.29;100.00;100372.13;5023413;28;20024;-74
2024/01/18 06:43:38;;;;;;;11.50;5.80;;;;;;;-8.35;100.00;100359.38;5039880;28;20098;-74
2024/01/18 06:46:04;;;;;;;4.95;3.42;;;;;;;-8.21;100.00;100371.81;5055813;28;20400;-74
2024/01/18 06:48:29;;;;;;;9.10;3.83;;;;;;;-8.25;100.00;100373.72;5039670;28;20033;-74
2024/01/18 06:50:55;;;;;;;17.40;6.88;;;;;;;-8.34;100.00;100386.28;5023210;28;20040;-75
2024/01/18 06:53:21;;;;;;;18.75;6.97;;;;;;;-8.46;100.00;100391.16;5039521;28;20033;-75
2024/01/18 06:55:47;;;;;;;9.02;4.82;;;;;;;-8.63;100.00;100393.59;5039475;28;20372;-75
2024/01/18 06:58:13;;;;;;;22.73;6.88;;;;;;;-8.78;100.00;100400.31;5039254;28;20069;-75
2024/01/18 07:00:39;;;;;;;12.88;4.45;;;;;;;-8.88;100.00;100401.56;5023121;28;20052;-75
2024/01/18 07:03:07;;;;;;;9.75;4.63;;;;;;;-8.98;100.00;100411.50;5039166;28;20040;-75
2024/01/18 07:05:33;;;;;;;7.82;3.85;;;;;;;-9.07;100.00;100419.69;5039650;28;20083;-75
2024/01/18 07:07:58;;;;;;;5.75;3.95;;;;;;;-9.15;100.00;100419.16;5056543;28;20025;-75
2024/01/18 07:10:24;;;;;;;4.20;2.65;;;;;;;-9.01;100.00;100418.59;5022795;28;20025;-75
2024/01/18 07:12:50;;;;;;;8.75;5.13;;;;;;;-8.78;100.00;100420.31;5022581;28;20586;-75
2024/01/18 07:15:15;;;;;;;7.47;4.93;;;;;;;-8.76;100.00;100426.28;5022559;28;20037;-74
2024/01/18 07:17:44;;;;;;;16.02;5.93;;;;;;;-8.85;100.00;100425.75;5022542;28;20079;-75
2024/01/18 07:20:10;;;;;;;5.43;4.28;;;;;;;-8.86;100.00;100439.69;5022646;28;20035;-75
2024/01/18 07:22:37;;;;;;;14.27;4.60;;;;;;;-8.97;100.00;100436.66;5039901;28;20036;-75
2024/01/18 07:25:05;;;;;;;6.47;4.28;;;;;;;-9.19;100.00;100433.19;5022439;28;20506;-74
2024/01/18 07:27:31;;;;;;;17.35;6.43;;;;;;;-9.16;100.00;100440.88;5038683;28;20032;-75
2024/01/18 07:29:57;;;;;;;8.68;4.60;;;;;;;-9.04;100.00;100437.81;5006032;28;20025;-75
2024/01/18 07:32:23;;;;;;;9.82;6.72;;;;;;;-8.82;100.00;100448.22;5038219;28;20086;-75
2024/01/18 07:34:48;;;;;;;8.95;6.43;;;;;;;-8.65;100.00;100444.97;5022597;28;20037;-75
2024/01/18 07:37:14;;;;;;;7.38;6.40;;;;;;;-8.55;100.00;100446.25;5037883;28;20400;-75
2024/01/18 07:39:41;;;;;;;9.43;6.00;;;;;;;-8.49;100.00;100447.81;5021004;28;20360;-75
2024/01/18 07:42:07;;;;;;;15.73;7.88;;;;;;;-8.44;100.00;100454.53;5037112;28;20130;-74
2024/01/18 07:44:33;;;;;;;11.30;5.82;;;;;;;-8.44;100.00;100464.94;5037457;28;20033;-75
2024/01/18 07:46:59;;;;;;;6.40;4.63;;;;;;;-8.51;100.00;100468.69;5020944;28;20071;-75
2024/01/18 07:49:25;;;;;;;11.00;5.97;;;;;;;-8.59;100.00;100470.78;5020270;28;20125;-75
2024/01/18 07:51:51;;;;;;;9.18;6.53;;;;;;;-8.71;100.00;100481.69;5020799;28;20497;-75
2024/01/18 07:54:16;;;;;;;7.13;3.70;;;;;;;-8.74;100.00;100493.06;5020332;28;20395;-75
2024/01/18 07:56:42;;;;;;;5.60;3.47;;;;;;;-8.73;100.00;100491.31;5036972;28;20037;-75
2024/01/18 07:59:08;;;;;;;6.57;4.35;;;;;;;-8.74;100.00;100492.22;5036694;28;20032;-75
2024/01/18 08:01:34;;;;;;;7.00;4.50;;;;;;;-8.68;100.00;100495.47;5020784;28;20072;-75
2024/01/18 08:04:00;;;;;;;23.75;11.75;;;;;;;-8.68;100.00;100499.78;5020627;28;20063;-74
2024/01/18 08:06:26;;;;;;;12.30;8.88;;;;;;;-8.65;100.00;100512.72;5020527;28;20179;-75
2024/01/18 08:08:51;;;;;;;13.75;8.30;;;;;;;-8.77;100.00;100523.63;5020228;28;20040;-75
2024/01/18 08:11:17;;;;;;;20.90;10.70;;;;;;;-8.83;100.00;100526.47;5035683;28;20201;-75
2024/01/18 08:13:43;;;;;;;16.88;11.38;;;;;;;-8.76;100.00;100533.13;5020249;28;20067;-75
2024/01/18 08:16:10;;;;;;;28.77;14.27;;;;;;;-8.85;100.00;100537.78;5020626;28;20029;-75
2024/01/18 08:18:36;;;;;;;26.13;12.68;;;;;;;-8.90;100.00;100539.72;5020160;28;20029;-77
2024/01/18 08:21:03;;;;;;;18.30;10.20;;;;;;;-8.98;100.00;100549.56;5052715;28;20064;-76
2024/01/18 08:23:29;;;;;;;14.68;8.82;;;;;;;-8.96;100.00;100557.34;5003886;28;20037;-75
2024/01/18 08:25:55;;;;;;;15.50;9.20;;;;;;;-8.89;100.00;100554.47;5036179;28;20395;-75
2024/01/18 08:28:22;;;;;;;16.38;10.18;;;;;;;-8.89;100.00;100550.97;5036721;28;20072;-75
2024/01/18 08:30:48;;;;;;;18.58;8.35;;;;;;;-8.86;100.00;100562.16;5036081;28;20079;-75
2024/01/18 08:33:18;;;;;;;13.23;8.15;;;;;;;-8.74;100.00;100566.03;5035918;28;20127;-75
2024/01/18 08:35:47;;;;;;;13.73;9.55;;;;;;;-8.72;100.00;100553.81;5020968;28;20041;-75
2024/01/18 08:38:12;;;;;;;22.17;11.32;;;;;;;-8.77;100.00;100573.13;4924205;28;2770499;-75
2024/01/18 08:40:38;;;;;;;15.20;9.15;;;;;;;-8.72;100.00;100569.44;5020927;28;20045;-75
2024/01/18 08:43:04;;;;;;;9.63;7.13;;;;;;;-8.57;100.00;100574.97;5020684;28;20447;-76
2024/01/18 08:45:30;;;;;;;14.23;7.93;;;;;;;-8.33;100.00;100576.59;5020257;28;20059;-75
2024/01/18 08:47:56;;;;;;;1.80;1.70;;;;;;;-8.04;100.00;100582.44;5021022;28;20553;-75
2024/01/18 08:50:23;;;;;;;33.35;15.45;;;;;;;-7.85;100.00;100590.34;5020793;28;20029;-75
2024/01/18 08:52:52;;;;;;;25.05;10.57;;;;;;;-7.81;100.00;100594.50;5036788;28;20028;-75
2024/01/18 08:55:18;;;;;;;16.42;7.53;;;;;;;-7.89;100.00;100602.66;5020354;28;20033;-75
2024/01/18 08:57:45;;;;;;;21.20;9.90;;;;;;;-7.82;100.00;100598.91;5037113;28;20043;-75
2024/01/18 09:00:13;;;;;;;15.60;8.70;;;;;;;-7.74;100.00;100603.81;5020491;28;20017;-75
2024/01/18 09:02:40;;;;;;;33.10;17.10;;;;;;;-7.67;100.00;100601.78;5036292;28;20085;-75
2024/01/18 09:05:06;;;;;;;21.38;11.88;;;;;;;-7.66;100.00;100609.56;5020365;28;20041;-75
2024/01/18 09:07:32;;;;;;;17.05;10.18;;;;;;;-7.53;100.00;100613.34;5020367;28;20041;-76
2024/01/18 09:10:11;;;;;;;24.15;13.82;;;;;;;-7.33;100.00;100622.09;5020155;28;20391;-75
2024/01/18 09:12:37;;;;;;;19.20;11.00;;;;;;;-7.36;100.00;100623.06;5052722;28;20021;-76
2024/01/18 09:15:09;;;;;;;27.40;17.55;;;;;;;-7.46;100.00;100627.00;5036296;28;20029;-75
2024/01/18 09:17:35;;;;;;;23.60;12.27;;;;;;;-7.57;100.00;100632.69;5020662;28;20028;-76
2024/01/18 09:20:00;;;;;;;32.33;16.70;;;;;;;-7.69;100.00;100640.16;5020475;28;20085;-75
2024/01/18 09:22:26;;;;;;;29.52;12.40;;;;;;;-7.72;100.00;100627.25;5020282;28;20464;-75
2024/01/18 09:24:52;;;;;;;18.73;8.93;;;;;;;-7.65;100.00;100639.97;5019904;28;20127;-75
2024/01/18 09:27:18;;;;;;;19.08;10.73;;;;;;;-7.58;100.00;100635.34;5020187;28;20044;-75
2024/01/18 09:29:44;;;;;;;18.27;9.05;;;;;;;-7.45;100.00;100649.59;5019919;28;20036;-75
2024/01/18 09:32:09;;;;;;;19.83;9.57;;;;;;;-7.31;100.00;100668.13;5019780;28;20025;-75
2024/01/18 09:34:35;;;;;;;13.43;7.85;;;;;;;-7.19;100.00;100664.16;5019898;28;20360;-75
2024/01/18 09:37:01;;;;;;;18.83;9.23;;;;;;;-7.07;100.00;100666.25;5020048;28;20060;-75
2024/01/18 09:39:27;;;;;;;17.98;9.95;;;;;;;-6.81;100.00;100676.50;5020073;28;20044;-76
2024/01/18 09:41:54;;;;;;;16.48;9.90;;;;;;;-6.53;100.00;100676.97;5020072;28;20032;-76
2024/01/18 09:44:30;;;;;;;15.13;10.05;;;;;;;-6.23;100.00;100682.56;5036351;28;20036;-76
2024/01/18 09:47:10;;;;;;;17.50;10.02;;;;;;;-6.09;100.00;100684.53;5050623;28;20069;-76
2024/01/18 09:49:37;;;;;;;24.13;11.75;;;;;;;-6.07;100.00;100687.09;5019717;28;20110;-76
2024/01/18 09:52:02;;;;;;;25.05;13.07;;;;;;;-6.02;100.00;100688.56;5019659;28;20383;-76
2024/01/18 09:54:29;;;;;;;16.90;9.38;;;;;;;-5.91;100.00;100688.03;5019808;28;20025;-75
2024/01/18 09:56:59;;;;;;;17.30;9.27;;;;;;;-5.72;100.00;100689.78;5052337;28;20116;-76
2024/01/18 09:59:29;;;;;;;14.77;9.55;;;;;;;-5.55;100.00;100692.44;5020218;28;20025;-76
2024/01/18 10:01:56;;;;;;;13.93;8.30;;;;;;;-5.39;100.00;100693.38;5036335;28;20063;-76
2024/01/18 10:04:22;;;;;;;15.93;9.60;;;;;;;-5.37;100.00;100698.53;5019958;28;20091;-76
2024/01/18 10:06:48;;;;;;;19.90;8.95;;;;;;;-4.95;100.00;100697.31;5036328;28;20480;-76
2024/01/18 10:09:14;;;;;;;18.70;10.05;;;;;;;-4.55;100.00;100701.34;5036200;28;20036;-76
2024/01/18 10:11:41;;;;;;;19.88;10.30;;;;;;;-4.37;100.00;100711.78;5036258;28;20139;-76
2024/01/18 10:14:07;;;;;;;22.73;12.65;;;;;;;-4.28;100.00;100722.66;5036113;28;20041;-76
2024/01/18 10:16:35;;;;;;;26.17;13.13;;;;;;;-3.94;100.00;100727.84;5019439;28;20052;-76
2024/01/18 10:19:05;;;;;;;24.80;13.05;;;;;;;-3.12;100.00;100739.00;5052440;28;20126;-76
2024/01/18 10:21:34;;;;;;;23.48;12.30;;;;;;;-1.92;100.00;100737.03;5035524;28;20037;-77
2024/01/18 10:24:01;;;;;;;18.55;9.48;;;;;;;-1.05;100.00;100740.25;5052381;28;20039;-76
2024/01/18 10:26:29;;;;;;;21.95;12.10;;;;;;;-0.39;100.00;100738.44;5019618;28;20132;-76
2024/01/18 10:28:55;;;;;;;27.80;13.20;;;;;;;0.12;100.00;100752.44;5052280;28;20025;-76
2024/01/18 10:31:21;;;;;;;26.25;14.50;;;;;;;0.52;100.00;100748.75;5051786;28;20104;-76
2024/01/18 10:33:46;;;;;;;14.48;10.23;;;;;;;0.84;100.00;100751.66;5052129;28;20075;-75
2024/01/18 10:36:13;;;;;;;16.98;9.38;;;;;;;1.15;100.00;100752.03;5036525;28;20138;-75
2024/01/18 10:38:41;;;;;;;11.95;7.03;;;;;;;1.36;100.00;100761.00;5035848;28;20546;-74
2024/01/18 10:41:08;;;;;;;11.55;6.80;;;;;;;1.40;100.00;100762.47;5051834;28;20029;-74
2024/01/18 10:43:35;;;;;;;9.05;5.38;;;;;;;1.45;100.00;100765.59;5018664;28;20029;-74
2024/01/18 10:46:01;;;;;;;10.50;5.85;;;;;;;1.62;100.00;100769.63;5017007;28;20128;-74
2024/01/18 10:48:31;;;;;;;9.85;6.18;;;;;;;1.60;100.00;100762.75;5017525;28;20033;-75
2024/01/18 10:50:57;;;;;;;9.68;5.50;;;;;;;1.57;100.00;100777.09;5003218;28;20033;-75
2024/01/18 10:53:24;;;;;;;6.53;4.47;;;;;;;1.62;100.00;100774.09;5019071;28;20068;-74
2024/01/18 10:55:51;;;;;;;12.35;6.57;;;;;;;1.59;100.00;100785.78;5035647;28;20419;-75
2024/01/18 10:58:18;;;;;;;9.95;5.63;;;;;;;1.36;100.00;100792.81;5003730;28;20123;-75
2024/01/18 11:00:46;;;;;;;14.30;8.10;;;;;;;1.01;100.00;100798.94;5035549;28;20029;-74
2024/01/18 11:03:13;;;;;;;16.58;8.50;;;;;;;0.78;100.00;100808.56;5019217;28;20489;-75
2024/01/18 11:05:40;;;;;;;11.90;5.00;;;;;;;0.98;100.00;100809.75;5002811;28;20048;-75
2024/01/18 11:08:06;;;;;;;8.68;4.45;;;;;;;1.06;100.00;100819.78;5018978;28;20045;-75
2024/01/18 11:10:32;;;;;;;9.57;5.47;;;;;;;1.25;100.00;100821.91;5018851;28;20089;-75
2024/01/18 11:12:58;;;;;;;12.77;7.38;;;;;;;1.22;100.00;100827.44;5018899;28;20128;-75
2024/01/18 11:15:24;;;;;;;17.33;9.75;;;;;;;1.02;100.00;100836.84;5018891;28;20037;-76
2024/01/18 11:17:51;;;;;;;13.90;7.15;;;;;;;0.63;100.00;100841.41;5019037;28;20132;-75